createdAt,value
2022-08-08T00:00:55.024Z,98752.66
2022-08-08T00:03:13.273Z,98748.81
2022-08-08T00:06:03.867Z,98741.97
2022-08-08T00:08:43.452Z,98746.00
2022-08-08T00:11:46.840Z,98737.47
2022-08-08T00:14:54.787Z,98742.19
2022-08-08T00:17:48.049Z,98749.88
2022-08-08T00:20:34.240Z,98747.69
2022-08-08T00:23:11.405Z,98750.72
2022-08-08T00:25:51.214Z,98751.88
2022-08-08T00:28:35.330Z,98745.56
2022-08-08T00:32:21.292Z,98744.19
2022-08-08T00:34:48.698Z,98747.25
2022-08-08T00:37:48.015Z,98750.25
2022-08-08T00:41:12.668Z,98752.25
2022-08-08T00:44:53.479Z,98746.22
2022-08-08T00:48:30.226Z,98742.19
2022-08-08T00:52:14.962Z,98740.16
2022-08-08T00:55:22.305Z,98735.66
2022-08-08T00:58:54.148Z,98735.50
2022-08-08T01:01:38.783Z,98742.19
2022-08-08T01:04:59.488Z,98743.50
2022-08-08T01:08:14.427Z,98730.47
2022-08-08T01:11:48.312Z,98737.84
2022-08-08T01:15:26.128Z,98735.50
2022-08-08T01:19:52.066Z,98740.66
2022-08-08T01:23:05.761Z,98743.00
2022-08-08T01:26:34.329Z,98739.97
2022-08-08T01:29:58.611Z,98742.28
2022-08-08T01:34:00.105Z,98742.97
2022-08-08T01:37:56.527Z,98739.94
2022-08-08T01:40:34.810Z,98747.59
2022-08-08T01:43:20.218Z,98751.44
2022-08-08T01:46:02.041Z,98751.28
2022-08-08T01:48:53.245Z,98738.56
2022-08-08T01:52:33.469Z,98738.91
2022-08-08T01:55:25.561Z,98745.72
2022-08-08T01:58:39.466Z,98748.34
2022-08-08T02:01:28.105Z,98753.31
2022-08-08T02:04:35.020Z,98759.00
2022-08-08T02:07:10.403Z,98754.81
2022-08-08T02:10:30.085Z,98754.59
2022-08-08T02:13:52.333Z,98750.56
2022-08-08T02:16:21.158Z,98751.22
2022-08-08T02:19:10.051Z,98755.03
2022-08-08T02:22:18.819Z,98750.16
2022-08-08T02:25:00.925Z,98742.97
2022-08-08T02:27:43.962Z,98752.25
2022-08-08T02:30:24.867Z,98748.09
2022-08-08T02:33:14.375Z,98742.06
2022-08-08T02:36:04.525Z,98742.53
2022-08-08T02:38:54.857Z,98739.53
2022-08-08T02:42:18.097Z,98742.81
2022-08-08T02:45:57.451Z,98746.34
2022-08-08T02:49:09.402Z,98745.50
2022-08-08T02:52:32.597Z,98744.78
2022-08-08T02:55:37.184Z,98741.31
2022-08-08T02:59:05.869Z,98755.94
2022-08-08T03:02:39.605Z,98758.25
2022-08-08T03:06:00.219Z,98755.19
2022-08-08T03:09:34.344Z,98757.50
2022-08-08T03:13:07.204Z,98763.16
2022-08-08T03:16:19.776Z,98764.13
2022-08-08T03:19:50.720Z,98762.09
2022-08-08T03:22:38.484Z,98767.75
2022-08-08T03:25:17.915Z,98769.72
2022-08-08T03:27:57.098Z,98773.69
2022-08-08T03:30:26.948Z,98772.84
2022-08-08T03:33:55.863Z,98778.31
2022-08-08T03:36:04.475Z,98780.47
2022-08-08T03:38:57.287Z,98773.59
2022-08-08T03:42:12.359Z,98781.91
2022-08-08T03:44:25.704Z,98789.22
2022-08-08T03:46:55.107Z,98792.84
2022-08-08T03:49:57.547Z,98794.16
2022-08-08T03:52:16.079Z,98794.59
2022-08-08T03:55:02.583Z,98797.44
2022-08-08T03:58:30.523Z,98797.72
2022-08-08T04:00:30.565Z,98791.59
2022-08-08T04:03:03.490Z,98803.19
2022-08-08T04:05:36.165Z,98805.88
2022-08-08T04:08:08.658Z,98802.69
2022-08-08T04:10:38.618Z,98803.66
2022-08-08T04:13:17.468Z,98804.34
2022-08-08T04:16:03.563Z,98814.84
2022-08-08T04:18:41.883Z,98811.34
2022-08-08T04:21:13.837Z,98808.97
2022-08-08T04:24:12.095Z,98823.28
2022-08-08T04:26:57.226Z,98826.09
2022-08-08T04:29:36.973Z,98821.94
2022-08-08T04:32:08.290Z,98826.41
2022-08-08T04:34:49.289Z,98821.94
2022-08-08T04:37:32.132Z,98821.94
2022-08-08T04:40:05.140Z,98827.09
2022-08-08T04:42:36.783Z,98829.63
2022-08-08T04:45:09.036Z,98833.25
2022-08-08T04:47:46.139Z,98831.28
2022-08-08T04:50:24.121Z,98833.94
2022-08-08T04:53:01.103Z,98842.50
2022-08-08T04:55:47.711Z,98844.31
2022-08-08T04:58:23.448Z,98845.69
2022-08-08T05:00:53.694Z,98840.91
2022-08-08T05:04:08.238Z,98849.69
2022-08-08T05:06:12.713Z,98849.25
2022-08-08T05:08:43.251Z,98858.66
2022-08-08T05:11:17.393Z,98850.19
2022-08-08T05:13:54.923Z,98861.06
2022-08-08T05:16:51.673Z,98862.28
2022-08-08T05:20:12.852Z,98858.88
2022-08-08T05:22:10.118Z,98857.41
2022-08-08T05:24:40.324Z,98857.50
2022-08-08T05:27:09.269Z,98862.22
2022-08-08T05:29:38.510Z,98869.59
2022-08-08T05:32:12.705Z,98872.63
2022-08-08T05:34:49.306Z,98879.34
2022-08-08T05:37:24.019Z,98872.25
2022-08-08T05:40:09.935Z,98865.00
2022-08-08T05:42:49.162Z,98874.88
2022-08-08T05:45:25.071Z,98878.97
2022-08-08T05:48:08.631Z,98872.03
2022-08-08T05:50:39.265Z,98877.44
2022-08-08T05:53:54.751Z,98878.84
2022-08-08T05:56:10.376Z,98884.25
2022-08-08T05:58:56.935Z,98881.97
2022-08-08T06:01:52.605Z,98881.03
2022-08-08T06:04:28.761Z,98879.44
2022-08-08T06:07:00.462Z,98874.97
2022-08-08T06:10:00.618Z,98879.84
2022-08-08T06:12:31.057Z,98876.22
2022-08-08T06:15:03.016Z,98879.25
2022-08-08T06:18:18.296Z,98879.97
2022-08-08T06:20:27.143Z,98884.97
2022-08-08T06:22:57.964Z,98876.91
2022-08-08T06:25:58.789Z,98875.25
2022-08-08T06:28:29.022Z,98879.03
2022-08-08T06:31:03.232Z,98879.19
2022-08-08T06:34:26.067Z,98885.16
2022-08-08T06:36:47.781Z,98888.75
2022-08-08T06:39:25.246Z,98885.97
2022-08-08T06:42:03.233Z,98895.28
2022-08-08T06:44:34.493Z,98896.66
2022-08-08T06:47:03.763Z,98880.81
2022-08-08T06:49:56.627Z,98886.91
2022-08-08T06:52:27.686Z,98882.81
2022-08-08T06:54:58.673Z,98885.63
2022-08-08T06:57:29.471Z,98885.19
2022-08-08T07:00:30.222Z,98891.81
2022-08-08T07:03:08.578Z,98887.97
2022-08-08T07:06:01.977Z,98886.00
2022-08-08T07:08:39.345Z,98881.97
2022-08-08T07:11:22.259Z,98874.94
2022-08-08T07:14:01.678Z,98878.31
2022-08-08T07:16:51.083Z,98882.91
2022-08-08T07:19:38.864Z,98883.34
2022-08-08T07:22:11.891Z,98872.72
2022-08-08T07:24:56.710Z,98876.19
2022-08-08T07:27:35.171Z,98876.09
2022-08-08T07:30:25.329Z,98878.84
2022-08-08T07:32:59.550Z,98876.38
2022-08-08T07:35:31.270Z,98878.38
2022-08-08T07:38:10.488Z,98882.66
2022-08-08T07:41:04.169Z,98885.56
2022-08-08T07:43:37.602Z,98883.16
2022-08-08T07:46:23.503Z,98883.97
2022-08-08T07:48:53.202Z,98876.16
2022-08-08T07:51:23.992Z,98877.38
2022-08-08T07:54:26.530Z,98868.09
2022-08-08T07:57:26.923Z,98862.94
2022-08-08T08:00:15.954Z,98871.56
2022-08-08T08:02:55.979Z,98870.66
2022-08-08T08:05:33.329Z,98873.50
2022-08-08T08:08:07.738Z,98867.78
2022-08-08T08:10:39.436Z,98868.78
2022-08-08T08:13:25.980Z,98872.25
2022-08-08T08:16:19.224Z,98869.97
2022-08-08T08:18:56.480Z,98869.91
2022-08-08T08:21:44.269Z,98859.88
2022-08-08T08:24:19.280Z,98858.00
2022-08-08T08:26:52.847Z,98858.16
2022-08-08T08:29:28.039Z,98861.53
2022-08-08T08:31:58.351Z,98850.22
2022-08-08T08:34:32.551Z,98853.84
2022-08-08T08:37:08.184Z,98852.53
2022-08-08T08:39:59.247Z,98846.72
2022-08-08T08:42:29.114Z,98851.06
2022-08-08T08:45:21.281Z,98842.13
2022-08-08T08:47:54.600Z,98849.41
2022-08-08T08:50:31.931Z,98851.63
2022-08-08T08:53:54.090Z,98848.38
2022-08-08T08:56:02.539Z,98846.69
2022-08-08T08:58:35.545Z,98840.13
2022-08-08T09:01:13.595Z,98841.78
2022-08-08T09:03:50.443Z,98836.66
2022-08-08T09:06:26.802Z,98831.97
2022-08-08T09:09:07.247Z,98836.81
2022-08-08T09:12:02.414Z,98836.16
2022-08-08T09:14:43.158Z,98840.44
2022-08-08T09:17:19.066Z,98832.25
2022-08-08T09:22:02.130Z,98841.53
2022-08-08T09:22:39.382Z,98843.66
2022-08-08T09:25:10.597Z,98841.88
2022-08-08T09:27:56.082Z,98842.34
2022-08-08T09:30:32.506Z,98839.56
2022-08-08T09:33:54.181Z,98839.56
2022-08-08T09:35:54.691Z,98840.25
2022-08-08T09:38:52.590Z,98835.88
2022-08-08T09:42:13.960Z,98842.16
2022-08-08T09:44:45.693Z,98833.91
2022-08-08T09:48:04.894Z,98819.78
2022-08-08T09:50:13.569Z,98824.72
2022-08-08T09:52:58.388Z,98814.16
2022-08-08T09:55:51.873Z,98821.53
2022-08-08T09:58:26.312Z,98822.03
2022-08-08T10:01:14.495Z,98818.19
2022-08-08T10:03:56.289Z,98820.81
2022-08-08T10:06:29.768Z,98815.22
2022-08-08T10:09:01.620Z,98807.94
2022-08-08T10:12:26.527Z,98811.03
2022-08-08T10:14:28.293Z,98797.94
2022-08-08T10:17:56.526Z,98792.09
2022-08-08T10:20:00.033Z,98797.72
2022-08-08T10:22:33.314Z,98792.50
2022-08-08T10:25:16.616Z,98795.47
2022-08-08T10:27:46.186Z,98806.16
2022-08-08T10:31:00.295Z,98799.25
2022-08-08T10:33:12.245Z,98805.41
2022-08-08T10:36:07.462Z,98798.34
2022-08-08T10:38:35.529Z,98784.97
2022-08-08T10:41:20.316Z,98800.56
2022-08-08T10:43:52.647Z,98800.94
2022-08-08T10:46:30.193Z,98791.47
2022-08-08T10:49:00.268Z,98793.31
2022-08-08T10:51:47.447Z,98793.16
2022-08-08T10:54:27.017Z,98789.75
2022-08-08T10:57:00.444Z,98784.00
2022-08-08T10:59:39.669Z,98785.34
2022-08-08T11:02:10.618Z,98782.06
2022-08-08T11:04:53.045Z,98777.56
2022-08-08T11:08:30.106Z,98770.88
2022-08-08T11:10:28.372Z,98777.69
2022-08-08T11:13:29.994Z,98776.84
2022-08-08T11:15:52.387Z,98769.81
2022-08-08T11:18:32.570Z,98762.78
2022-08-08T11:21:08.793Z,98768.69
2022-08-08T11:23:43.339Z,98773.19
2022-08-08T11:26:19.460Z,98772.13
2022-08-08T11:28:50.593Z,98765.22
2022-08-08T11:31:23.143Z,98759.34
2022-08-08T11:34:03.207Z,98753.84
2022-08-08T11:36:36.362Z,98756.50
2022-08-08T11:39:12.708Z,98762.03
2022-08-08T11:41:45.621Z,98767.47
2022-08-08T11:44:15.856Z,98758.97
2022-08-08T11:46:45.596Z,98754.56
2022-08-08T11:49:22.880Z,98753.09
2022-08-08T11:51:53.846Z,98747.75
2022-08-08T11:54:34.818Z,98750.53
2022-08-08T11:57:14.621Z,98754.59
2022-08-08T12:00:01.228Z,98742.31
2022-08-08T12:02:34.241Z,98740.69
2022-08-08T12:05:07.298Z,98738.56
2022-08-08T12:07:49.719Z,98733.66
2022-08-08T12:10:22.553Z,98739.56
2022-08-08T12:13:03.499Z,98735.94
2022-08-08T12:15:42.498Z,98733.69
2022-08-08T12:18:21.419Z,98733.97
2022-08-08T12:20:54.696Z,98729.56
2022-08-08T12:23:42.845Z,98717.91
2022-08-08T12:26:28.164Z,98722.41
2022-08-08T12:29:21.754Z,98721.41
2022-08-08T12:32:13.454Z,98717.06
2022-08-08T12:34:48.922Z,98719.69
2022-08-08T12:37:22.807Z,98716.34
2022-08-08T12:40:01.189Z,98709.47
2022-08-08T12:42:32.911Z,98714.34
2022-08-08T12:45:57.921Z,98704.72
2022-08-08T12:48:09.608Z,98704.50
2022-08-08T12:50:54.661Z,98710.34
2022-08-08T12:53:35.187Z,98709.03
2022-08-08T12:56:19.891Z,98710.78
2022-08-08T12:58:55.278Z,98706.63
2022-08-08T13:01:37.754Z,98706.84
2022-08-08T13:04:18.312Z,98709.13
2022-08-08T13:06:55.740Z,98707.00
2022-08-08T13:10:00.657Z,98702.31
2022-08-08T13:12:30.192Z,98701.78
2022-08-08T13:15:02.263Z,98702.56
2022-08-08T13:18:08.847Z,98697.56
2022-08-08T13:20:26.006Z,98690.81
2022-08-08T13:25:58.597Z,98684.78
2022-08-08T13:28:32.634Z,98684.56
2022-08-08T13:31:04.008Z,98678.38
2022-08-08T13:33:42.153Z,98678.25
2022-08-08T13:36:13.698Z,98672.75
2022-08-08T13:38:43.031Z,98675.00
2022-08-08T13:41:16.361Z,98670.78
2022-08-08T13:43:47.677Z,98678.34
2022-08-08T13:46:26.060Z,98671.13
2022-08-08T13:49:11.265Z,98666.22
2022-08-08T13:51:52.319Z,98667.19
2022-08-08T13:54:22.994Z,98657.94
2022-08-08T13:57:12.441Z,98658.00
2022-08-08T13:59:48.353Z,98665.38
2022-08-08T14:02:21.171Z,98677.16
2022-08-08T14:05:00.340Z,98665.13
2022-08-08T14:07:42.376Z,98666.09
2022-08-08T14:10:17.460Z,98657.41
2022-08-08T14:12:48.360Z,98654.44
2022-08-08T14:15:31.382Z,98660.69
2022-08-08T14:18:36.660Z,98656.72
2022-08-08T14:21:07.892Z,98663.47
2022-08-08T14:24:04.199Z,98658.38
2022-08-08T14:26:33.356Z,98652.81
2022-08-08T14:29:06.092Z,98649.63
2022-08-08T14:32:08.932Z,98659.84
2022-08-08T14:34:39.131Z,98657.97
2022-08-08T14:37:17.410Z,98648.63
2022-08-08T14:39:53.986Z,98647.47
2022-08-08T14:42:55.056Z,98643.66
2022-08-08T14:45:33.671Z,98643.16
2022-08-08T14:48:27.442Z,98650.94
2022-08-08T14:51:07.510Z,98647.97
2022-08-08T14:53:55.022Z,98653.06
2022-08-08T14:56:25.942Z,98647.78
2022-08-08T14:58:56.157Z,98645.47
2022-08-08T15:01:29.991Z,98654.34
2022-08-08T15:04:12.571Z,98652.19
2022-08-08T15:06:44.481Z,98640.06
2022-08-08T15:09:16.533Z,98646.72
2022-08-08T15:11:53.439Z,98644.50
2022-08-08T15:14:25.286Z,98641.00
2022-08-08T15:16:57.131Z,98643.94
2022-08-08T15:19:27.814Z,98651.00
2022-08-08T15:21:57.809Z,98642.31
2022-08-08T15:24:31.815Z,98645.16
2022-08-08T15:27:19.957Z,98637.72
2022-08-08T15:29:50.836Z,98637.19
2022-08-08T15:32:26.249Z,98642.44
2022-08-08T15:35:00.269Z,98630.84
2022-08-08T15:37:30.181Z,98634.06
2022-08-08T15:40:02.039Z,98636.66
2022-08-08T15:42:32.293Z,98635.31
2022-08-08T15:45:02.862Z,98643.41
2022-08-08T15:47:32.396Z,98634.44
2022-08-08T15:50:02.424Z,98632.00
2022-08-08T15:52:34.204Z,98628.72
2022-08-08T15:55:09.968Z,98631.78
2022-08-08T15:57:40.035Z,98634.75
2022-08-08T16:00:26.826Z,98629.34
2022-08-08T16:02:57.969Z,98628.13
2022-08-08T16:05:35.831Z,98623.94
2022-08-08T16:08:20.137Z,98629.75
2022-08-08T16:13:05.366Z,98630.91
2022-08-08T16:13:45.050Z,98621.47
2022-08-08T16:16:22.340Z,98626.88
2022-08-08T16:18:56.745Z,98627.16
2022-08-08T16:21:30.144Z,98620.09
2022-08-08T16:24:01.137Z,98622.63
2022-08-08T16:26:34.982Z,98628.88
2022-08-08T16:29:09.091Z,98627.56
2022-08-08T16:31:48.219Z,98626.88
2022-08-08T16:34:19.713Z,98622.47
2022-08-08T16:36:50.887Z,98626.72
2022-08-08T16:39:59.798Z,98627.25
2022-08-08T16:42:17.842Z,98626.22
2022-08-08T16:44:54.288Z,98629.16
2022-08-08T16:47:31.490Z,98622.19
2022-08-08T16:50:15.498Z,98622.72
2022-08-08T16:55:04.693Z,98627.50
2022-08-08T16:55:52.336Z,98628.16
2022-08-08T16:58:31.698Z,98626.09
2022-08-08T17:01:05.766Z,98627.09
2022-08-08T17:03:59.187Z,98629.69
2022-08-08T17:06:37.071Z,98628.66
2022-08-08T17:09:23.084Z,98631.03
2022-08-08T17:11:55.598Z,98635.94
2022-08-08T17:14:34.124Z,98630.00
2022-08-08T17:17:04.805Z,98632.63
2022-08-08T17:19:40.743Z,98638.25
2022-08-08T17:22:10.980Z,98643.16
2022-08-08T17:24:42.331Z,98644.69
2022-08-08T17:27:12.883Z,98645.94
2022-08-08T17:29:54.699Z,98640.06
2022-08-08T17:32:29.026Z,98645.06
2022-08-08T17:35:54.236Z,98647.28
2022-08-08T17:37:53.382Z,98651.81
2022-08-08T17:40:23.251Z,98659.38
2022-08-08T17:42:52.381Z,98666.63
2022-08-08T17:45:24.298Z,98662.25
2022-08-08T17:47:54.944Z,98660.28
2022-08-08T17:50:25.060Z,98664.31
2022-08-08T17:52:57.570Z,98665.06
2022-08-08T17:56:06.537Z,98670.19
2022-08-08T17:58:17.775Z,98669.78
2022-08-08T18:00:57.272Z,98676.97
2022-08-08T18:03:30.829Z,98678.41
2022-08-08T18:06:02.717Z,98677.88
2022-08-08T18:08:41.308Z,98691.88
2022-08-08T18:11:16.302Z,98694.31
2022-08-08T18:13:47.496Z,98696.72
2022-08-08T18:16:23.343Z,98695.84
2022-08-08T18:18:56.563Z,98703.13
2022-08-08T18:21:59.983Z,98710.97
2022-08-08T18:24:21.810Z,98712.47
2022-08-08T18:26:55.874Z,98706.28
2022-08-08T18:29:33.066Z,98707.19
2022-08-08T18:32:08.088Z,98712.72
2022-08-08T18:34:39.493Z,98719.91
2022-08-08T18:37:10.252Z,98720.53
2022-08-08T18:39:59.226Z,98726.25
2022-08-08T18:42:29.348Z,98734.47
2022-08-08T18:44:58.134Z,98733.13
2022-08-08T18:47:33.591Z,98735.28
2022-08-08T18:50:03.330Z,98735.56
2022-08-08T18:52:34.616Z,98739.63
2022-08-08T18:55:10.556Z,98749.09
2022-08-08T18:57:44.799Z,98749.31
2022-08-08T19:00:19.644Z,98750.06
2022-08-08T19:03:03.889Z,98766.38
2022-08-08T19:05:45.407Z,98764.03
2022-08-08T19:08:24.591Z,98772.72
2022-08-08T19:10:59.230Z,98776.44
2022-08-08T19:13:38.417Z,98780.63
2022-08-08T19:16:19.384Z,98786.16
2022-08-08T19:19:02.656Z,98791.72
2022-08-08T19:21:48.902Z,98786.41
2022-08-08T19:24:38.129Z,98784.94
2022-08-08T19:27:15.014Z,98799.81
2022-08-08T19:29:46.279Z,98798.09
2022-08-08T19:32:19.716Z,98801.25
2022-08-08T19:34:57.443Z,98807.50
2022-08-08T19:37:43.454Z,98812.66
2022-08-08T19:40:16.201Z,98819.06
2022-08-08T19:42:46.371Z,98822.53
2022-08-08T19:45:58.205Z,98823.72
2022-08-08T19:48:06.039Z,98826.38
2022-08-08T19:50:56.652Z,98826.69
2022-08-08T19:53:54.075Z,98832.63
2022-08-08T19:56:16.121Z,98833.63
2022-08-08T19:58:51.438Z,98841.66
2022-08-08T20:01:24.294Z,98843.84
2022-08-08T20:04:03.564Z,98844.38
2022-08-08T20:06:34.042Z,98840.84
2022-08-08T20:09:08.977Z,98845.28
2022-08-08T20:11:43.184Z,98848.28
2022-08-08T20:14:33.811Z,98843.53
2022-08-08T20:17:01.641Z,98846.88
2022-08-08T20:19:34.323Z,98850.69
2022-08-08T20:22:20.719Z,98848.22
2022-08-08T20:27:21.107Z,98844.97
2022-08-08T20:30:01.059Z,98855.19
2022-08-08T20:32:31.930Z,98846.06
2022-08-08T20:35:03.762Z,98856.69
2022-08-08T20:37:46.751Z,98868.63
2022-08-08T20:40:33.534Z,98868.44
2022-08-08T20:43:16.047Z,98863.47
2022-08-08T20:45:57.929Z,98867.03
2022-08-08T20:48:32.384Z,98860.81
2022-08-08T20:51:06.178Z,98874.16
2022-08-08T20:53:59.937Z,98874.41
2022-08-08T20:56:35.154Z,98868.34
2022-08-08T20:59:09.089Z,98871.91
2022-08-08T21:02:05.307Z,98877.13
2022-08-08T21:04:27.905Z,98871.50
2022-08-08T21:06:57.219Z,98877.75
2022-08-08T21:09:31.786Z,98878.59
2022-08-08T21:12:16.535Z,98880.50
2022-08-08T21:14:49.018Z,98883.22
2022-08-08T21:17:18.169Z,98887.59
2022-08-08T21:19:48.641Z,98876.78
2022-08-08T21:22:17.758Z,98889.28
2022-08-08T21:24:52.635Z,98890.13
2022-08-08T21:28:06.551Z,98898.41
2022-08-08T21:30:19.269Z,98894.69
2022-08-08T21:32:53.369Z,98896.56
2022-08-08T21:36:14.406Z,98894.66
2022-08-08T21:38:16.872Z,98897.53
2022-08-08T21:40:56.171Z,98910.00
2022-08-08T21:43:30.905Z,98907.06
2022-08-08T21:48:06.528Z,98904.81
2022-08-08T21:48:57.755Z,98913.75
2022-08-08T21:54:18.013Z,98906.66
2022-08-08T21:54:53.548Z,98913.91
2022-08-08T21:57:09.987Z,98917.44
2022-08-08T22:00:01.981Z,98916.34
2022-08-08T22:02:27.938Z,98916.13
2022-08-08T22:04:59.552Z,98914.25
2022-08-08T22:07:40.372Z,98920.66
2022-08-08T22:10:28.609Z,98918.91
2022-08-08T22:13:17.021Z,98916.41
2022-08-08T22:15:59.108Z,98913.47
2022-08-08T22:18:31.679Z,98918.00
2022-08-08T22:21:13.972Z,98912.56
2022-08-08T22:23:53.513Z,98904.66
2022-08-08T22:26:26.863Z,98900.25
2022-08-08T22:29:15.044Z,98909.13
2022-08-08T22:32:01.553Z,98898.72
2022-08-08T22:34:33.209Z,98912.13
2022-08-08T22:37:27.721Z,98904.22
2022-08-08T22:40:01.088Z,98905.19
2022-08-08T22:42:32.034Z,98908.84
2022-08-08T22:45:12.400Z,98913.53
2022-08-08T22:47:48.751Z,98911.63
2022-08-08T22:50:27.074Z,98915.28
2022-08-08T22:54:30.435Z,98919.78
2022-08-08T22:55:59.438Z,98922.59
2022-08-08T22:58:34.609Z,98918.38
2022-08-08T23:02:03.002Z,98922.84
2022-08-08T23:03:57.938Z,98931.28
2022-08-08T23:06:27.332Z,98931.56
2022-08-08T23:08:58.874Z,98934.41
2022-08-08T23:12:28.705Z,98927.22
2022-08-08T23:14:21.984Z,98926.50
2022-08-08T23:16:59.406Z,98928.50
2022-08-08T23:19:32.165Z,98928.56
2022-08-08T23:22:04.599Z,98924.97
2022-08-08T23:24:36.489Z,98931.09
2022-08-08T23:27:07.053Z,98930.19
2022-08-08T23:29:37.418Z,98939.19
2022-08-08T23:32:10.953Z,98934.53
2022-08-08T23:34:58.346Z,98936.13
2022-08-08T23:38:00.924Z,98947.63
2022-08-08T23:40:21.893Z,98937.59
2022-08-08T23:42:51.617Z,98933.16
2022-08-08T23:49:01.099Z,98934.59
2022-08-08T23:49:06.330Z,98944.63
2022-08-08T23:51:00.642Z,98932.66
2022-08-08T23:53:55.950Z,98944.13
2022-08-08T23:56:31.907Z,98941.50
2022-08-08T23:59:03.818Z,98942.41
